Time;durP1;ratioP1;P1;durP2;ratioP2;P2;SDS_P1;SDS_P2;PMS_P1;PMS_P2;Temp;Humidity;BMP_temperature;BMP_pressure;BME280_temperature;BME280_humidity;BME280_pressure;Samples;Min_cycle;Max_cycle;Signal;HPM_P1;HPM_P2
2024/01/27 00:01:23;;;;;;;13.07;4.30;;;5.10;99.90;;;;;;5020034;28;20706;-83
2024/01/27 00:03:50;;;;;;;8.60;4.03;;;5.20;99.90;;;;;;5033874;28;20220;-83
2024/01/27 00:06:18;;;;;;;12.60;4.57;;;5.20;99.90;;;;;;5042724;28;20207;-84
2024/01/27 00:08:45;;;;;;;8.97;4.03;;;5.20;99.90;;;;;;5020625;28;20226;-84
2024/01/27 00:11:14;;;;;;;13.73;4.03;;;5.20;99.90;;;;;;5039731;28;20205;-84
2024/01/27 00:13:42;;;;;;;11.03;3.73;;;5.20;99.90;;;;;;5044614;28;20223;-84
2024/01/27 00:16:11;;;;;;;17.50;5.53;;;5.10;99.90;;;;;;5038461;28;20658;-84
2024/01/27 00:18:41;;;;;;;11.37;4.40;;;5.20;99.90;;;;;;5037910;28;20549;-83
2024/01/27 00:21:08;;;;;;;12.23;3.90;;;5.10;99.90;;;;;;5051234;28;20194;-84
2024/01/27 00:23:36;;;;;;;12.30;3.60;;;5.00;99.90;;;;;;5020733;28;20226;-84
2024/01/27 00:26:04;;;;;;;10.30;4.53;;;5.10;99.90;;;;;;5053510;28;20209;-84
2024/01/27 00:28:33;;;;;;;13.50;5.50;;;5.10;99.90;;;;;;5045694;28;20306;-84
2024/01/27 00:31:00;;;;;;;11.40;3.90;;;5.10;99.90;;;;;;5032262;28;20201;-84
2024/01/27 00:33:28;;;;;;;17.43;5.57;;;5.00;99.90;;;;;;5050530;28;20688;-84
2024/01/27 00:35:55;;;;;;;16.60;4.17;;;5.00;99.90;;;;;;5051372;28;20198;-84
2024/01/27 00:38:23;;;;;;;15.50;5.00;;;4.90;99.90;;;;;;5018991;28;20192;-84
2024/01/27 00:40:50;;;;;;;11.47;4.40;;;4.90;99.90;;;;;;5050180;28;20205;-84
2024/01/27 00:43:18;;;;;;;11.77;4.87;;;5.00;99.90;;;;;;5037164;28;20223;-84
2024/01/27 00:45:47;;;;;;;11.90;4.80;;;5.10;99.90;;;;;;5039236;28;20196;-84
2024/01/27 00:48:14;;;;;;;15.50;5.10;;;5.00;99.90;;;;;;5018142;28;20215;-83
2024/01/27 00:50:42;;;;;;;12.13;4.93;;;5.00;99.90;;;;;;5018365;28;20202;-84
2024/01/27 00:53:09;;;;;;;12.50;5.37;;;5.00;99.90;;;;;;5017809;28;20245;-84
2024/01/27 00:55:37;;;;;;;14.27;5.07;;;5.00;99.90;;;;;;5042177;28;20354;-84
2024/01/27 00:58:05;;;;;;;12.90;5.50;;;5.10;99.90;;;;;;5015216;28;20196;-83
2024/01/27 01:00:32;;;;;;;11.40;4.87;;;5.10;99.90;;;;;;5056574;28;20206;-83
2024/01/27 01:03:00;;;;;;;14.53;4.50;;;5.00;99.90;;;;;;5048158;28;20219;-83
2024/01/27 01:05:28;;;;;;;10.50;4.67;;;4.90;99.90;;;;;;5056406;28;20212;-83
2024/01/27 01:07:55;;;;;;;11.67;4.63;;;4.90;99.90;;;;;;5019978;28;20211;-84
2024/01/27 01:10:23;;;;;;;11.87;4.90;;;5.00;99.90;;;;;;5032607;28;20240;-83
2024/01/27 01:12:50;;;;;;;12.87;5.23;;;5.10;99.90;;;;;;5053696;28;20221;-83
2024/01/27 01:15:19;;;;;;;10.63;5.80;;;4.90;99.90;;;;;;5054525;28;20215;-82
2024/01/27 01:17:47;;;;;;;16.50;5.73;;;4.80;99.90;;;;;;5051643;28;20192;-83
2024/01/27 01:20:16;;;;;;;10.33;5.17;;;4.80;99.90;;;;;;5041269;28;20205;-83
2024/01/27 01:22:43;;;;;;;12.43;5.87;;;5.00;99.90;;;;;;5045983;28;20222;-83
2024/01/27 01:25:11;;;;;;;14.70;4.90;;;4.90;99.90;;;;;;5056019;28;20197;-82
2024/01/27 01:27:38;;;;;;;13.40;6.07;;;4.70;99.90;;;;;;5038737;28;20214;-83
2024/01/27 01:30:07;;;;;;;12.80;4.70;;;4.70;99.90;;;;;;5051775;28;20686;-83
2024/01/27 01:32:34;;;;;;;12.90;5.30;;;4.70;99.90;;;;;;5049525;28;20237;-81
2024/01/27 01:35:02;;;;;;;10.80;4.60;;;4.70;99.90;;;;;;5057594;28;20187;-83
2024/01/27 01:37:31;;;;;;;16.73;5.27;;;4.90;99.90;;;;;;5034119;28;20194;-83
2024/01/27 01:39:58;;;;;;;15.47;6.53;;;4.70;99.90;;;;;;5046027;28;20209;-83
2024/01/27 01:42:26;;;;;;;14.40;5.03;;;4.70;99.90;;;;;;5050142;28;20198;-83
2024/01/27 01:44:53;;;;;;;11.13;4.67;;;4.70;99.90;;;;;;5047868;28;20667;-83
2024/01/27 01:47:22;;;;;;;9.77;4.70;;;4.70;99.90;;;;;;5042428;28;20202;-83
2024/01/27 01:49:49;;;;;;;12.23;4.73;;;4.70;99.90;;;;;;5033396;28;20222;-83
2024/01/27 01:52:19;;;;;;;11.83;5.37;;;4.60;99.90;;;;;;5027571;28;20197;-83
2024/01/27 01:54:49;;;;;;;14.07;4.93;;;4.70;99.90;;;;;;5022618;28;20203;-82
2024/01/27 01:57:16;;;;;;;13.17;4.70;;;4.60;99.90;;;;;;5027874;28;20200;-83
2024/01/27 01:59:44;;;;;;;17.20;5.00;;;4.70;99.90;;;;;;5034551;28;20194;-83
2024/01/27 02:02:13;;;;;;;13.03;5.57;;;4.70;99.90;;;;;;5028807;28;20202;-83
2024/01/27 02:04:41;;;;;;;15.67;5.20;;;4.80;99.90;;;;;;5040875;28;20198;-83
2024/01/27 02:07:09;;;;;;;13.23;5.17;;;4.70;99.90;;;;;;5053557;28;20700;-82
2024/01/27 02:09:37;;;;;;;14.47;5.17;;;4.80;99.90;;;;;;5042829;28;20226;-83
2024/01/27 02:12:07;;;;;;;12.83;5.23;;;4.70;99.90;;;;;;5038380;28;20202;-83
2024/01/27 02:14:34;;;;;;;12.70;5.00;;;4.70;99.90;;;;;;5037788;28;20219;-83
2024/01/27 02:17:02;;;;;;;11.27;5.10;;;4.80;99.90;;;;;;5052280;28;20206;-82
2024/01/27 02:19:30;;;;;;;15.90;6.03;;;4.60;99.90;;;;;;5056160;28;20201;-82
2024/01/27 02:21:57;;;;;;;11.70;5.63;;;4.50;99.90;;;;;;5052768;28;20215;-82
2024/01/27 02:24:28;;;;;;;10.00;5.37;;;4.50;99.90;;;;;;5051515;28;20219;-83
2024/01/27 02:26:55;;;;;;;12.87;5.80;;;4.70;99.90;;;;;;5023911;28;20182;-83
2024/01/27 02:29:23;;;;;;;14.20;5.87;;;4.50;99.90;;;;;;5042786;28;20229;-83
2024/01/27 02:31:50;;;;;;;14.90;6.10;;;4.60;99.90;;;;;;5038932;28;20201;-83
2024/01/27 02:34:17;;;;;;;11.90;5.83;;;4.50;99.90;;;;;;5040150;28;20222;-82
2024/01/27 02:36:46;;;;;;;17.53;7.13;;;4.60;99.90;;;;;;5056780;28;20546;-83
2024/01/27 02:39:14;;;;;;;17.50;8.93;;;4.40;99.90;;;;;;5037959;28;20200;-82
2024/01/27 02:41:42;;;;;;;16.70;8.23;;;4.60;99.90;;;;;;5031668;28;20207;-83
2024/01/27 02:44:12;;;;;;;15.00;7.30;;;4.60;99.90;;;;;;5049750;28;20222;-83
2024/01/27 02:46:44;;;;;;;14.43;6.90;;;4.60;99.90;;;;;;5034185;28;20559;-82
2024/01/27 02:49:11;;;;;;;15.73;6.50;;;4.50;99.90;;;;;;5050559;28;20234;-83
2024/01/27 02:51:39;;;;;;;13.57;6.10;;;4.50;99.90;;;;;;5047702;28;20200;-84
2024/01/27 02:54:06;;;;;;;15.17;5.93;;;4.60;99.90;;;;;;5044577;28;20248;-83
2024/01/27 02:56:34;;;;;;;14.93;6.63;;;4.60;99.90;;;;;;5041047;28;20206;-84
2024/01/27 02:59:03;;;;;;;13.97;5.87;;;4.70;99.90;;;;;;5018803;28;20204;-83
2024/01/27 03:01:30;;;;;;;15.97;6.77;;;4.60;99.90;;;;;;5038051;28;20395;-84
2024/01/27 03:03:58;;;;;;;14.37;5.67;;;4.50;99.90;;;;;;5044850;28;20228;-83
2024/01/27 03:06:25;;;;;;;12.13;5.20;;;4.60;99.90;;;;;;5031485;28;20191;-83
2024/01/27 03:08:52;;;;;;;15.23;5.77;;;4.70;99.90;;;;;;5043061;28;20216;-83
2024/01/27 03:11:20;;;;;;;12.53;5.53;;;4.60;99.90;;;;;;5029753;28;20195;-83
2024/01/27 03:13:48;;;;;;;13.80;5.50;;;4.60;99.90;;;;;;5044596;28;20575;-83
2024/01/27 03:16:19;;;;;;;14.10;5.47;;;4.50;99.90;;;;;;5036938;28;20221;-83
2024/01/27 03:18:47;;;;;;;12.27;4.90;;;4.50;99.90;;;;;;5040594;28;20202;-84
2024/01/27 03:21:14;;;;;;;13.63;7.30;;;4.40;99.90;;;;;;5031917;28;20205;-84
2024/01/27 03:23:42;;;;;;;16.53;6.17;;;4.40;99.90;;;;;;5036015;28;20215;-83
2024/01/27 03:26:10;;;;;;;12.53;6.03;;;4.40;99.90;;;;;;5049011;28;20195;-83
2024/01/27 03:28:37;;;;;;;16.33;7.17;;;4.40;99.90;;;;;;5039632;28;20206;-83
2024/01/27 03:31:05;;;;;;;13.87;5.80;;;4.50;99.90;;;;;;5034199;28;20201;-83
2024/01/27 03:33:34;;;;;;;12.87;5.93;;;4.30;99.90;;;;;;5020384;28;20212;-84
2024/01/27 03:36:02;;;;;;;15.30;6.43;;;4.30;99.90;;;;;;5039200;28;20214;-84
2024/01/27 03:38:30;;;;;;;16.10;6.07;;;4.30;99.90;;;;;;5026064;28;20198;-83
2024/01/27 03:40:58;;;;;;;11.17;5.40;;;4.20;99.90;;;;;;5034026;28;20578;-84
2024/01/27 03:43:25;;;;;;;18.33;6.53;;;4.30;99.90;;;;;;5035406;28;20215;-83
2024/01/27 03:45:53;;;;;;;19.00;5.90;;;4.30;99.90;;;;;;5023457;28;20212;-84
2024/01/27 03:48:20;;;;;;;12.80;5.33;;;4.30;99.90;;;;;;5014287;28;20207;-83
2024/01/27 03:50:49;;;;;;;15.07;5.43;;;4.30;99.90;;;;;;5034538;28;20214;-84
2024/01/27 03:53:17;;;;;;;13.97;5.50;;;4.40;99.90;;;;;;5028521;28;20234;-84
2024/01/27 03:55:44;;;;;;;10.90;6.03;;;4.30;99.90;;;;;;5029359;28;20206;-83
2024/01/27 03:58:12;;;;;;;12.60;5.80;;;4.10;99.90;;;;;;5037195;28;20195;-83
2024/01/27 04:00:39;;;;;;;12.37;5.80;;;4.10;99.90;;;;;;5014251;28;20199;-83
2024/01/27 04:03:09;;;;;;;14.23;6.37;;;4.20;99.90;;;;;;5034416;28;20226;-83
2024/01/27 04:05:37;;;;;;;15.97;6.73;;;4.20;99.90;;;;;;5024155;28;20196;-83
2024/01/27 04:08:07;;;;;;;14.77;6.37;;;4.20;99.90;;;;;;5035401;28;20191;-83
2024/01/27 04:10:34;;;;;;;15.10;6.07;;;4.20;99.90;;;;;;5040654;28;20214;-83
2024/01/27 04:13:02;;;;;;;12.10;6.10;;;4.20;99.90;;;;;;5051676;28;20226;-83
2024/01/27 04:15:29;;;;;;;14.77;6.43;;;4.00;99.90;;;;;;5029791;28;20698;-83
2024/01/27 04:17:57;;;;;;;14.53;6.60;;;4.20;99.90;;;;;;5012297;28;20191;-83
2024/01/27 04:20:25;;;;;;;12.63;6.40;;;4.20;99.90;;;;;;5032972;28;20195;-83
2024/01/27 04:22:52;;;;;;;18.23;7.33;;;4.20;99.90;;;;;;5014659;28;20223;-83
2024/01/27 04:25:21;;;;;;;15.90;6.43;;;4.10;99.90;;;;;;5010082;28;20212;-84
2024/01/27 04:27:49;;;;;;;14.50;6.97;;;4.20;99.90;;;;;;5035138;28;20199;-83
2024/01/27 04:30:18;;;;;;;12.63;6.90;;;4.20;99.90;;;;;;5036918;28;20231;-81
2024/01/27 04:32:46;;;;;;;14.53;6.97;;;4.20;99.90;;;;;;5027458;28;20226;-83
2024/01/27 04:35:13;;;;;;;17.97;6.87;;;4.20;99.90;;;;;;5007527;28;20207;-83
2024/01/27 04:37:41;;;;;;;13.40;7.43;;;4.20;99.90;;;;;;5041304;28;20199;-83
2024/01/27 04:40:09;;;;;;;20.57;8.00;;;4.10;99.90;;;;;;5044678;28;20206;-84
2024/01/27 04:42:39;;;;;;;19.27;7.20;;;4.10;99.90;;;;;;5042056;28;20690;-84
2024/01/27 04:45:07;;;;;;;16.37;7.83;;;4.10;99.90;;;;;;5005923;28;20217;-84
2024/01/27 04:47:35;;;;;;;20.53;7.90;;;4.20;99.90;;;;;;5028094;28;20205;-83
2024/01/27 04:50:03;;;;;;;15.70;8.00;;;4.00;99.90;;;;;;5044752;28;20226;-83
2024/01/27 04:52:30;;;;;;;18.00;7.30;;;4.00;99.90;;;;;;5047934;28;20202;-83
2024/01/27 04:54:59;;;;;;;15.37;7.27;;;4.10;99.90;;;;;;5035051;28;20206;-83
2024/01/27 04:57:27;;;;;;;15.50;7.27;;;4.00;99.90;;;;;;5014218;28;20210;-83
2024/01/27 04:59:56;;;;;;;12.97;7.53;;;4.10;99.90;;;;;;5034027;28;20196;-83
2024/01/27 05:02:23;;;;;;;18.23;7.60;;;4.00;99.90;;;;;;5044413;28;20211;-84
2024/01/27 05:04:51;;;;;;;20.33;8.17;;;3.90;99.90;;;;;;5038174;28;20195;-83
2024/01/27 05:07:19;;;;;;;11.97;7.50;;;3.90;99.90;;;;;;5032603;28;20211;-84
2024/01/27 05:09:46;;;;;;;20.00;9.27;;;4.00;99.90;;;;;;5048911;28;20546;-82
2024/01/27 05:12:14;;;;;;;15.80;8.00;;;4.00;99.90;;;;;;5048400;28;20207;-83
2024/01/27 05:14:44;;;;;;;13.80;7.30;;;4.00;99.90;;;;;;5037186;28;20202;-83
2024/01/27 05:17:13;;;;;;;16.20;7.90;;;3.90;99.90;;;;;;5020768;28;20193;-83
2024/01/27 05:19:41;;;;;;;14.97;7.83;;;4.00;99.90;;;;;;5037115;28;20194;-83
2024/01/27 05:22:08;;;;;;;14.33;7.97;;;3.90;99.90;;;;;;5021346;28;20203;-83
2024/01/27 05:24:36;;;;;;;17.00;8.07;;;3.90;99.90;;;;;;5057245;28;20231;-83
2024/01/27 05:27:04;;;;;;;15.23;7.97;;;4.00;99.90;;;;;;5036881;28;20204;-84
2024/01/27 05:29:31;;;;;;;17.20;7.87;;;3.90;99.90;;;;;;5015682;28;20199;-84
2024/01/27 05:31:59;;;;;;;22.03;9.30;;;3.90;99.90;;;;;;5035576;28;20207;-84
2024/01/27 05:34:28;;;;;;;16.93;8.87;;;3.90;99.90;;;;;;5048822;28;20233;-83
2024/01/27 05:36:55;;;;;;;14.53;8.07;;;3.90;99.90;;;;;;5038310;28;20218;-85
2024/01/27 05:39:22;;;;;;;14.93;8.57;;;3.90;99.90;;;;;;5033610;28;20204;-83
2024/01/27 05:41:50;;;;;;;15.60;7.27;;;3.80;99.90;;;;;;5041567;28;20200;-83
2024/01/27 05:44:22;;;;;;;16.90;7.83;;;4.00;99.90;;;;;;5016737;28;20227;-83
2024/01/27 05:46:49;;;;;;;18.37;6.57;;;3.90;99.90;;;;;;5018769;28;20207;-83
2024/01/27 05:49:17;;;;;;;14.80;6.73;;;4.00;99.90;;;;;;5013148;28;20191;-82
2024/01/27 05:51:46;;;;;;;14.67;7.00;;;4.00;99.90;;;;;;5043496;28;20235;-83
2024/01/27 05:54:16;;;;;;;12.17;6.77;;;4.00;99.90;;;;;;5019682;28;20227;-83
2024/01/27 05:56:44;;;;;;;11.93;6.40;;;3.80;99.90;;;;;;5036927;28;20196;-83
2024/01/27 05:59:11;;;;;;;10.63;6.43;;;3.80;99.90;;;;;;5048052;28;20216;-84
2024/01/27 06:01:40;;;;;;;11.27;6.77;;;3.80;99.90;;;;;;5044046;28;20198;-83
2024/01/27 06:04:08;;;;;;;12.23;6.63;;;3.80;99.90;;;;;;5020609;28;20216;-83
2024/01/27 06:06:38;;;;;;;12.87;7.93;;;3.80;99.90;;;;;;5020988;28;20204;-83
2024/01/27 06:09:10;;;;;;;21.03;7.43;;;3.80;99.90;;;;;;5039418;28;20195;-83
2024/01/27 06:11:38;;;;;;;15.67;6.97;;;3.80;99.90;;;;;;5016173;28;20631;-84
2024/01/27 06:14:06;;;;;;;19.63;6.93;;;3.90;99.90;;;;;;5017928;28;20226;-83
2024/01/27 06:16:35;;;;;;;16.40;7.07;;;3.80;99.90;;;;;;5047157;28;20209;-83
2024/01/27 06:19:02;;;;;;;14.97;6.53;;;3.80;99.90;;;;;;5036163;28;20206;-84
2024/01/27 06:21:30;;;;;;;12.60;6.43;;;3.80;99.90;;;;;;5021407;28;20195;-85
2024/01/27 06:23:57;;;;;;;13.00;6.37;;;3.80;99.90;;;;;;5020200;28;20273;-83
2024/01/27 06:26:26;;;;;;;14.77;6.77;;;3.80;99.90;;;;;;5047659;28;20210;-83
2024/01/27 06:28:55;;;;;;;14.17;6.30;;;3.80;99.90;;;;;;5021718;28;20224;-83
2024/01/27 06:31:23;;;;;;;18.93;7.53;;;3.90;99.90;;;;;;5019187;28;20230;-83
2024/01/27 06:33:50;;;;;;;9.10;5.60;;;3.80;99.90;;;;;;5037589;28;20211;-84
2024/01/27 06:36:18;;;;;;;14.80;7.03;;;3.80;99.90;;;;;;5018994;28;20283;-83
2024/01/27 06:38:46;;;;;;;13.77;6.17;;;4.00;99.90;;;;;;5046534;28;20199;-83
2024/01/27 06:41:13;;;;;;;17.70;6.27;;;3.80;99.90;;;;;;5033174;28;20572;-83
2024/01/27 06:43:44;;;;;;;13.70;6.07;;;3.80;99.90;;;;;;5040785;28;20226;-83
2024/01/27 06:46:12;;;;;;;10.57;5.57;;;3.90;99.90;;;;;;5036798;28;20216;-83
2024/01/27 06:48:39;;;;;;;12.43;6.50;;;3.90;99.90;;;;;;5027376;28;20211;-83
2024/01/27 06:51:12;;;;;;;12.13;6.50;;;3.80;99.90;;;;;;5018281;28;20219;-85
2024/01/27 06:53:40;;;;;;;12.43;5.97;;;3.90;99.90;;;;;;5015806;28;20226;-83
2024/01/27 06:56:08;;;;;;;9.73;5.23;;;4.00;99.90;;;;;;5034857;28;20209;-83
2024/01/27 06:58:39;;;;;;;15.43;5.93;;;4.00;99.90;;;;;;5019757;28;20193;-83
2024/01/27 07:01:09;;;;;;;12.67;5.40;;;4.00;99.90;;;;;;5040854;28;20222;-83
2024/01/27 07:03:36;;;;;;;13.80;5.73;;;4.00;99.90;;;;;;5020162;28;20225;-83
2024/01/27 07:06:04;;;;;;;12.10;5.97;;;3.80;99.90;;;;;;5036566;28;20204;-83
2024/01/27 07:08:32;;;;;;;10.67;6.03;;;3.90;99.90;;;;;;5043797;28;20203;-83
2024/01/27 07:11:00;;;;;;;11.60;6.03;;;3.90;99.90;;;;;;5034802;28;20205;-83
2024/01/27 07:13:29;;;;;;;17.80;6.80;;;4.00;99.90;;;;;;5049731;28;20230;-83
2024/01/27 07:15:56;;;;;;;10.33;5.87;;;3.90;99.90;;;;;;5014856;28;20206;-84
2024/01/27 07:18:26;;;;;;;14.87;5.73;;;4.00;99.90;;;;;;5017956;28;20208;-78
2024/01/27 07:20:54;;;;;;;12.40;6.13;;;3.80;99.90;;;;;;5013323;28;20191;-79
2024/01/27 07:23:22;;;;;;;14.30;5.60;;;4.00;99.90;;;;;;5037200;28;20222;-78
2024/01/27 07:25:49;;;;;;;13.13;5.63;;;4.10;99.90;;;;;;5040415;28;20201;-78
2024/01/27 07:28:18;;;;;;;10.70;5.57;;;4.00;99.90;;;;;;5038377;28;20215;-78
2024/01/27 07:30:46;;;;;;;14.43;6.40;;;4.00;99.90;;;;;;5023026;28;20214;-78
2024/01/27 07:33:16;;;;;;;16.27;5.00;;;4.00;99.90;;;;;;5010698;28;20223;-78
2024/01/27 07:35:48;;;;;;;14.70;5.73;;;3.90;99.90;;;;;;5026275;28;20202;-78
2024/01/27 07:38:15;;;;;;;12.87;5.10;;;4.10;99.90;;;;;;5010563;28;20707;-78
2024/01/27 07:40:42;;;;;;;10.43;5.63;;;3.90;99.90;;;;;;5013006;28;20213;-78
2024/01/27 07:43:10;;;;;;;11.50;5.87;;;3.90;99.90;;;;;;5030993;28;20710;-78
2024/01/27 07:45:38;;;;;;;9.50;5.60;;;4.00;99.90;;;;;;5039010;28;20556;-79
2024/01/27 07:48:07;;;;;;;11.83;5.07;;;3.90;99.90;;;;;;5041290;28;20203;-78
2024/01/27 07:50:34;;;;;;;10.93;5.87;;;4.10;99.90;;;;;;5007235;28;20197;-78
2024/01/27 07:53:03;;;;;;;10.57;6.00;;;3.90;99.90;;;;;;5029004;28;20234;-78
2024/01/27 07:55:30;;;;;;;12.07;6.50;;;3.90;99.90;;;;;;5030495;28;20193;-78
2024/01/27 07:57:58;;;;;;;17.90;6.87;;;3.90;99.90;;;;;;5013226;28;20203;-79
2024/01/27 08:00:25;;;;;;;12.77;6.73;;;3.90;99.90;;;;;;5011085;28;20208;-78
2024/01/27 08:02:52;;;;;;;13.63;6.20;;;3.90;99.90;;;;;;5010116;28;20219;-79
2024/01/27 08:05:20;;;;;;;13.87;5.87;;;3.90;99.90;;;;;;5011672;28;20219;-78
2024/01/27 08:07:47;;;;;;;11.77;6.37;;;4.00;99.90;;;;;;5031482;28;20194;-78
2024/01/27 08:10:16;;;;;;;14.30;6.40;;;4.10;99.90;;;;;;5010161;28;20207;-80
2024/01/27 08:12:44;;;;;;;17.37;7.23;;;4.00;99.90;;;;;;5026613;28;20228;-80
2024/01/27 08:15:12;;;;;;;16.27;6.63;;;4.10;99.90;;;;;;5011069;28;20203;-82
2024/01/27 08:17:39;;;;;;;16.47;7.53;;;4.10;99.90;;;;;;5010377;28;20217;-78
2024/01/27 08:20:08;;;;;;;14.60;7.00;;;4.00;99.90;;;;;;5018843;28;20195;-79
2024/01/27 08:22:36;;;;;;;14.63;6.70;;;4.10;99.90;;;;;;5028815;28;20230;-78
2024/01/27 08:25:04;;;;;;;15.50;5.90;;;4.20;99.90;;;;;;5013311;28;20195;-78
2024/01/27 08:27:33;;;;;;;12.53;6.60;;;4.20;99.90;;;;;;5009018;28;20203;-79
2024/01/27 08:30:00;;;;;;;14.13;6.73;;;4.20;99.90;;;;;;5019039;28;20210;-80
2024/01/27 08:32:27;;;;;;;16.57;7.10;;;4.30;99.90;;;;;;5001332;28;20215;-80
2024/01/27 08:34:55;;;;;;;17.30;6.23;;;4.20;99.90;;;;;;5027973;28;20199;-79
2024/01/27 08:37:22;;;;;;;16.40;7.47;;;4.20;99.90;;;;;;5019143;28;20204;-79
2024/01/27 08:39:51;;;;;;;18.20;6.20;;;4.30;99.90;;;;;;5018529;28;20196;-79
2024/01/27 08:42:18;;;;;;;16.17;6.47;;;4.30;99.90;;;;;;5035305;28;20195;-79
2024/01/27 08:44:47;;;;;;;14.53;6.27;;;4.40;99.90;;;;;;5018584;28;20192;-81
2024/01/27 08:47:14;;;;;;;10.97;6.13;;;4.50;99.90;;;;;;5045232;28;20211;-81
2024/01/27 08:49:42;;;;;;;15.73;6.27;;;4.50;99.90;;;;;;5052819;28;20213;-81
2024/01/27 08:52:09;;;;;;;12.90;5.97;;;4.60;99.90;;;;;;5035652;28;20215;-81
2024/01/27 08:54:36;;;;;;;17.40;6.47;;;4.60;99.90;;;;;;5045368;28;20234;-82
2024/01/27 08:57:04;;;;;;;15.03;7.03;;;4.70;99.90;;;;;;5035382;28;20198;-79
2024/01/27 08:59:32;;;;;;;11.80;6.00;;;4.70;99.90;;;;;;5062748;22;20216;-82
2024/01/27 09:02:01;;;;;;;14.30;6.03;;;4.70;99.90;;;;;;5039366;28;20200;-82
2024/01/27 09:04:29;;;;;;;12.13;5.40;;;4.80;99.90;;;;;;5039081;28;20195;-81
2024/01/27 09:06:56;;;;;;;12.13;5.60;;;4.80;99.90;;;;;;5004202;28;20215;-82
2024/01/27 09:09:24;;;;;;;11.53;5.47;;;4.90;99.90;;;;;;5019667;28;20225;-82
2024/01/27 09:11:51;;;;;;;12.97;5.47;;;5.00;99.90;;;;;;5029443;28;20215;-82
2024/01/27 09:14:23;;;;;;;11.53;6.23;;;5.00;99.90;;;;;;5023436;28;20213;-82
2024/01/27 09:16:52;;;;;;;15.37;6.40;;;4.90;99.90;;;;;;5025038;28;20199;-83
2024/01/27 09:19:21;;;;;;;12.67;5.83;;;5.10;99.90;;;;;;5020105;28;20212;-82
2024/01/27 09:21:48;;;;;;;14.73;6.13;;;5.10;99.90;;;;;;5027285;28;20212;-82
2024/01/27 09:24:26;;;;;;;13.23;6.60;;;5.10;99.90;;;;;;5009900;28;20218;-83
2024/01/27 09:26:54;;;;;;;15.10;6.57;;;5.30;99.90;;;;;;5013995;28;20201;-83
2024/01/27 09:29:21;;;;;;;15.73;6.47;;;5.30;99.90;;;;;;5020429;28;20719;-83
2024/01/27 09:31:49;;;;;;;16.10;5.97;;;5.40;99.90;;;;;;5023415;28;20220;-83
2024/01/27 09:34:16;;;;;;;12.77;5.47;;;5.30;99.90;;;;;;5041252;28;20201;-82
2024/01/27 09:36:45;;;;;;;10.73;5.43;;;5.30;99.90;;;;;;5027753;28;20207;-82
2024/01/27 09:39:13;;;;;;;16.33;6.17;;;5.50;99.90;;;;;;5022165;28;20232;-82
2024/01/27 09:41:41;;;;;;;12.50;6.33;;;5.50;99.90;;;;;;5016484;28;20613;-83
2024/01/27 09:44:13;;;;;;;13.57;5.40;;;5.60;99.90;;;;;;5016190;28;20224;-83
2024/01/27 09:46:47;;;;;;;11.73;5.20;;;5.60;99.90;;;;;;5019423;28;20202;-82
2024/01/27 09:49:15;;;;;;;11.77;4.53;;;5.60;99.90;;;;;;5029308;28;20226;-83
2024/01/27 09:51:43;;;;;;;13.70;5.10;;;5.80;99.90;;;;;;5025226;28;20217;-82
2024/01/27 09:54:15;;;;;;;12.00;6.23;;;5.90;99.90;;;;;;5030965;28;20209;-83
2024/01/27 09:56:44;;;;;;;9.40;5.87;;;5.90;99.90;;;;;;5020774;28;20217;-83
2024/01/27 09:59:14;;;;;;;13.67;5.40;;;6.00;99.90;;;;;;5012090;28;20231;-83
2024/01/27 10:01:42;;;;;;;14.67;5.80;;;6.10;99.90;;;;;;5009849;28;20202;-83
2024/01/27 10:04:10;;;;;;;8.17;5.03;;;6.30;99.90;;;;;;5021580;28;20207;-83
2024/01/27 10:06:37;;;;;;;13.93;5.13;;;6.30;99.90;;;;;;5020258;28;20204;-83
2024/01/27 10:09:05;;;;;;;9.47;4.80;;;6.30;99.90;;;;;;5019660;28;20205;-83
2024/01/27 10:11:37;;;;;;;10.33;5.13;;;6.30;99.90;;;;;;5018589;28;20209;-83
2024/01/27 10:14:05;;;;;;;15.67;5.00;;;6.40;99.90;;;;;;5013946;28;20218;-83
2024/01/27 10:16:41;;;;;;;11.00;5.20;;;6.50;99.90;;;;;;5017686;28;20204;-82
2024/01/27 10:19:15;;;;;;;14.23;5.47;;;6.50;99.90;;;;;;5021394;28;20204;-82
2024/01/27 10:21:42;;;;;;;11.87;5.07;;;6.60;99.90;;;;;;5022023;28;20198;-82
2024/01/27 10:24:10;;;;;;;12.10;4.60;;;6.70;99.90;;;;;;5034390;28;20195;-82
2024/01/27 10:26:39;;;;;;;12.60;5.60;;;6.80;99.90;;;;;;5037396;28;20199;-82
2024/01/27 10:29:07;;;;;;;12.33;4.60;;;7.00;99.90;;;;;;5025292;28;20667;-81
2024/01/27 10:31:35;;;;;;;12.43;5.20;;;7.00;99.90;;;;;;5020964;28;20203;-82
2024/01/27 10:34:04;;;;;;;12.07;4.60;;;7.20;99.90;;;;;;5035663;28;20222;-81
2024/01/27 10:36:42;;;;;;;12.13;4.83;;;7.10;99.90;;;;;;5021557;28;20205;-83
2024/01/27 10:39:17;;;;;;;9.37;4.60;;;7.00;99.90;;;;;;5037426;28;20202;-83
2024/01/27 10:41:49;;;;;;;13.83;4.90;;;7.10;99.90;;;;;;5020358;28;20199;-83
2024/01/27 10:44:18;;;;;;;12.57;4.83;;;7.20;99.90;;;;;;5011995;28;20218;-83
2024/01/27 10:46:47;;;;;;;9.73;4.30;;;7.10;99.90;;;;;;5020912;28;20218;-83
2024/01/27 10:49:16;;;;;;;11.60;5.00;;;7.30;99.90;;;;;;5023906;28;20683;-82
2024/01/27 10:52:27;;;;;;;;;;;;;;;;;;;;;
2024/01/27 10:55:15;;;;;;;9.30;4.40;;;7.60;99.90;;;;;;5018993;28;20655;-81
2024/01/27 10:57:49;;;;;;;13.70;4.30;;;7.50;99.90;;;;;;5019351;28;20214;-82
2024/01/27 11:00:18;;;;;;;9.67;3.67;;;7.70;99.90;;;;;;5019463;28;20710;-82
2024/01/27 11:02:46;;;;;;;10.23;4.27;;;8.00;99.90;;;;;;5023668;28;20221;-82
2024/01/27 11:05:16;;;;;;;13.63;4.73;;;7.70;99.90;;;;;;5032053;28;20214;-83
2024/01/27 11:07:44;;;;;;;8.43;3.77;;;7.90;99.90;;;;;;5028601;28;20210;-82
2024/01/27 11:10:11;;;;;;;14.13;4.17;;;7.80;99.90;;;;;;5029131;28;20219;-82
2024/01/27 11:12:39;;;;;;;13.10;4.00;;;7.90;99.90;;;;;;5022216;28;20227;-82
2024/01/27 11:15:10;;;;;;;8.93;4.10;;;8.00;99.90;;;;;;5029201;28;20226;-82
2024/01/27 11:17:42;;;;;;;9.90;3.90;;;8.60;99.90;;;;;;5002145;28;20202;-80
2024/01/27 11:20:12;;;;;;;16.07;4.47;;;8.50;99.90;;;;;;5022845;28;20229;-80
2024/01/27 11:22:42;;;;;;;10.50;3.30;;;8.60;99.90;;;;;;5020916;28;20203;-80
2024/01/27 11:25:16;;;;;;;8.90;3.67;;;8.70;99.90;;;;;;5018411;28;20199;-80
2024/01/27 11:27:44;;;;;;;11.50;3.80;;;8.60;99.90;;;;;;5025967;28;20195;-80
2024/01/27 11:30:33;;;;;;;10.80;3.80;;;8.90;99.90;;;;;;5020482;28;20239;-79
2024/01/27 11:33:03;;;;;;;11.97;4.30;;;9.40;99.90;;;;;;5012386;28;20684;-79
2024/01/27 11:35:30;;;;;;;11.53;3.63;;;9.60;99.90;;;;;;5011369;28;20191;-80
2024/01/27 11:37:58;;;;;;;9.33;3.47;;;9.40;99.90;;;;;;5034849;28;20194;-83
2024/01/27 11:40:25;;;;;;;9.03;3.50;;;9.40;99.90;;;;;;5018966;28;20230;-83
2024/01/27 11:42:57;;;;;;;8.63;3.37;;;9.90;99.90;;;;;;5016032;28;20191;-83
2024/01/27 11:45:29;;;;;;;8.30;3.60;;;10.10;99.90;;;;;;5033102;28;20673;-84
2024/01/27 11:47:57;;;;;;;13.83;3.90;;;9.90;99.90;;;;;;5027284;28;20656;-82
2024/01/27 11:50:25;;;;;;;12.13;4.13;;;9.70;99.90;;;;;;5026991;28;20293;-84
2024/01/27 11:52:52;;;;;;;8.90;3.80;;;9.80;99.90;;;;;;5033349;28;20206;-83
2024/01/27 11:55:20;;;;;;;8.07;3.27;;;9.80;99.30;;;;;;5029674;28;20203;-83
2024/01/27 11:57:51;;;;;;;10.70;4.13;;;10.30;98.90;;;;;;5037225;28;20204;-84
2024/01/27 12:00:19;;;;;;;8.70;3.83;;;9.90;99.50;;;;;;5024059;28;20231;-83
2024/01/27 12:02:52;;;;;;;9.83;4.07;;;10.90;98.80;;;;;;5044627;28;20214;-84
2024/01/27 12:05:20;;;;;;;12.00;4.13;;;11.00;97.60;;;;;;5015925;28;20195;-84
2024/01/27 12:07:47;;;;;;;8.23;3.72;;;12.80;95.40;;;;;;5031284;28;20206;-84
2024/01/27 12:10:15;;;;;;;8.68;3.50;;;13.40;92.30;;;;;;5029748;28;20230;-83
2024/01/27 12:12:43;;;;;;;9.32;3.90;;;11.50;92.90;;;;;;5020103;28;20203;-83
2024/01/27 12:15:11;;;;;;;9.55;4.18;;;11.40;94.00;;;;;;5047908;28;20187;-83
2024/01/27 12:17:38;;;;;;;10.65;4.00;;;11.20;94.00;;;;;;5018989;28;20206;-83
2024/01/27 12:20:16;;;;;;;12.30;3.83;;;12.20;94.00;;;;;;5029057;28;20227;-84
2024/01/27 12:22:43;;;;;;;13.63;3.38;;;13.30;92.00;;;;;;5042353;28;20190;-84
2024/01/27 12:25:49;;;;;;;11.90;3.90;;;11.90;91.60;;;;;;5047208;28;20195;-84
2024/01/27 12:28:19;;;;;;;10.77;3.97;;;11.60;92.30;;;;;;5016760;28;20199;-83
2024/01/27 12:30:47;;;;;;;9.48;3.38;;;11.80;91.20;;;;;;5023282;28;20227;-84
2024/01/27 12:33:15;;;;;;;9.75;3.75;;;11.50;91.40;;;;;;5029238;28;20229;-83
2024/01/27 12:35:44;;;;;;;12.77;3.78;;;11.30;93.00;;;;;;5050151;28;20202;-83
2024/01/27 12:44:16;;;;;;;9.70;3.85;;;12.90;90.60;;;;;;4989018;28;20671;-83
2024/01/27 12:46:44;;;;;;;10.70;3.55;;;14.60;83.60;;;;;;5022062;28;20199;-83
2024/01/27 12:49:17;;;;;;;11.02;4.32;;;14.80;82.60;;;;;;5018807;28;20233;-85
2024/01/27 12:51:48;;;;;;;8.68;3.70;;;13.20;79.40;;;;;;5036333;28;20551;-83
2024/01/27 12:54:16;;;;;;;12.95;3.38;;;12.40;84.90;;;;;;5020548;28;20207;-83
2024/01/27 12:57:24;;;;;;;8.52;3.60;;;13.30;80.00;;;;;;5029968;28;20210;-83
2024/01/27 13:00:09;;;;;;;8.95;3.60;;;13.00;84.70;;;;;;4974305;28;20224;-84
2024/01/27 13:05:38;;;;;;;7.68;3.80;;;15.00;78.90;;;;;;5011009;28;20194;-84